createdAt,value
2023-04-16T00:00:35.557Z,98951.88
2023-04-16T00:03:23.958Z,98960.50
2023-04-16T00:05:51.357Z,98960.50
2023-04-16T00:08:18.679Z,98959.31
2023-04-16T00:10:45.832Z,98961.38
2023-04-16T00:13:13.189Z,98959.97
2023-04-16T00:15:40.353Z,98965.50
2023-04-16T00:18:07.699Z,98967.53
2023-04-16T00:20:34.793Z,98971.22
2023-04-16T00:23:04.025Z,98965.31
2023-04-16T00:25:32.033Z,98961.44
2023-04-16T00:27:59.316Z,98968.44
2023-04-16T00:30:26.451Z,98965.97
2023-04-16T00:32:53.837Z,98965.59
2023-04-16T00:35:21.272Z,98972.13
2023-04-16T00:37:48.575Z,98981.94
2023-04-16T00:40:15.839Z,98985.22
2023-04-16T00:42:43.126Z,98982.97
2023-04-16T00:45:11.522Z,98995.84
2023-04-16T00:47:39.156Z,98998.72
2023-04-16T00:50:07.454Z,99002.41
2023-04-16T00:52:35.378Z,99006.09
2023-04-16T00:55:08.004Z,99000.38
2023-04-16T00:57:35.726Z,99008.56
2023-04-16T01:00:04.534Z,99005.31
2023-04-16T01:02:33.988Z,99011.84
2023-04-16T01:05:03.144Z,99018.38
2023-04-16T01:07:30.612Z,99022.47
2023-04-16T01:09:57.967Z,99017.38
2023-04-16T01:12:25.358Z,99021.47
2023-04-16T01:14:53.090Z,99015.53
2023-04-16T01:17:20.807Z,99022.69
2023-04-16T01:19:48.770Z,99027.78
2023-04-16T01:22:16.341Z,99017.19
2023-04-16T01:24:43.459Z,99011.88
2023-04-16T01:27:11.348Z,99016.38
2023-04-16T01:29:38.422Z,99017.41
2023-04-16T01:32:05.928Z,99016.78
2023-04-16T01:34:36.115Z,99015.16
2023-04-16T01:37:04.244Z,99011.06
2023-04-16T01:39:31.367Z,99012.09
2023-04-16T01:41:58.745Z,99014.75
2023-04-16T01:44:26.374Z,99024.16
2023-04-16T01:46:53.735Z,99027.81
2023-04-16T01:49:22.580Z,99018.44
2023-04-16T01:51:49.919Z,99030.47
2023-04-16T01:54:16.979Z,99023.31
2023-04-16T01:56:44.398Z,99020.06
2023-04-16T01:59:12.343Z,99024.34
2023-04-16T02:01:42.535Z,99023.31
2023-04-16T02:04:11.642Z,99029.44
2023-04-16T02:06:39.438Z,99029.44
2023-04-16T02:09:06.742Z,99031.03
2023-04-16T02:11:34.508Z,99039.81
2023-04-16T02:14:02.419Z,99035.75
2023-04-16T02:16:31.083Z,99038.38
2023-04-16T02:19:18.159Z,99036.16
2023-04-16T02:21:46.308Z,99031.25
2023-04-16T02:24:13.814Z,99032.66
2023-04-16T02:26:42.428Z,99036.72
2023-04-16T02:29:16.362Z,99041.59
2023-04-16T02:31:50.043Z,99043.22
2023-04-16T02:34:18.808Z,99051.56
2023-04-16T02:36:46.455Z,99054.66
2023-04-16T02:39:13.713Z,99059.13
2023-04-16T02:41:41.226Z,99056.88
2023-04-16T02:44:08.357Z,99053.78
2023-04-16T02:46:35.887Z,99060.50
2023-04-16T02:49:03.153Z,99059.06
2023-04-16T02:51:30.966Z,99062.72
2023-04-16T02:53:58.136Z,99061.50
2023-04-16T02:56:25.667Z,99056.59
2023-04-16T02:58:54.727Z,99065.19
2023-04-16T03:01:22.220Z,99074.16
2023-04-16T03:03:49.438Z,99082.69
2023-04-16T03:06:16.797Z,99075.34
2023-04-16T03:08:43.980Z,99086.72
2023-04-16T03:11:11.361Z,99089.16
2023-04-16T03:13:38.630Z,99088.75
2023-04-16T03:16:06.547Z,99092.00
2023-04-16T03:18:33.690Z,99092.63
2023-04-16T03:21:00.998Z,99101.38
2023-04-16T03:23:28.418Z,99097.69
2023-04-16T03:25:55.734Z,99104.56
2023-04-16T03:28:23.111Z,99102.31
2023-04-16T03:30:54.283Z,99110.91
2023-04-16T03:33:22.633Z,99110.31
2023-04-16T03:35:58.920Z,99104.78
2023-04-16T03:38:31.307Z,99112.69
2023-04-16T03:40:59.872Z,99109.59
2023-04-16T03:43:27.446Z,99110.03
2023-04-16T03:45:54.979Z,99108.41
2023-04-16T03:48:23.787Z,99119.59
2023-04-16T03:50:51.190Z,99116.97
2023-04-16T03:53:20.323Z,99126.94
2023-04-16T03:55:52.519Z,99131.00
2023-04-16T03:58:21.413Z,99131.38
2023-04-16T04:00:48.817Z,99132.59
2023-04-16T04:03:18.534Z,99141.72
2023-04-16T04:05:48.484Z,99134.63
2023-04-16T04:08:20.785Z,99154.59
2023-04-16T04:10:48.257Z,99154.97
2023-04-16T04:13:16.113Z,99157.63
2023-04-16T04:15:44.909Z,99163.53
2023-04-16T04:18:12.044Z,99163.16
2023-04-16T04:20:43.585Z,99166.81
2023-04-16T04:23:13.576Z,99173.75
2023-04-16T04:25:41.295Z,99177.03
2023-04-16T04:28:08.416Z,99181.06
2023-04-16T04:30:36.034Z,99179.06
2023-04-16T04:33:04.152Z,99179.88
2023-04-16T04:35:31.614Z,99187.63
2023-04-16T04:37:59.670Z,99185.22
2023-04-16T04:40:29.323Z,99186.91
2023-04-16T04:42:56.498Z,99195.91
2023-04-16T04:45:29.711Z,99193.75
2023-04-16T04:47:59.381Z,99191.94
2023-04-16T04:50:26.890Z,99205.44
2023-04-16T04:52:54.111Z,99192.41
2023-04-16T04:55:22.449Z,99193.25
2023-04-16T04:57:50.991Z,99193.91
2023-04-16T05:00:18.541Z,99192.94
2023-04-16T05:02:53.272Z,99202.38
2023-04-16T05:05:20.943Z,99201.22
2023-04-16T05:07:48.354Z,99210.66
2023-04-16T05:10:16.268Z,99204.19
2023-04-16T05:12:43.376Z,99212.41
2023-04-16T05:15:11.202Z,99214.47
2023-04-16T05:17:38.281Z,99219.81
2023-04-16T05:20:07.447Z,99219.41
2023-04-16T05:22:34.521Z,99230.88
2023-04-16T05:25:06.417Z,99231.28
2023-04-16T05:27:33.619Z,99236.59
2023-04-16T05:30:00.920Z,99230.84
2023-04-16T05:32:28.063Z,99238.19
2023-04-16T05:34:55.646Z,99241.66
2023-04-16T05:37:22.867Z,99244.69
2023-04-16T05:39:50.371Z,99240.53
2023-04-16T05:42:17.715Z,99238.44
2023-04-16T05:44:45.001Z,99237.38
2023-04-16T05:47:12.308Z,99237.50
2023-04-16T05:49:39.641Z,99237.03
2023-04-16T05:52:07.402Z,99236.97
2023-04-16T05:54:34.714Z,99239.53
2023-04-16T05:57:04.075Z,99231.06
2023-04-16T05:59:31.365Z,99234.84
2023-04-16T06:01:58.577Z,99238.44
2023-04-16T06:04:26.327Z,99240.97
2023-04-16T06:06:53.406Z,99243.25
2023-04-16T06:09:20.818Z,99246.84
2023-04-16T06:11:48.877Z,99240.19
2023-04-16T06:14:16.211Z,99240.25
2023-04-16T06:16:43.369Z,99245.19
2023-04-16T06:19:10.990Z,99240.88
2023-04-16T06:21:38.446Z,99239.13
2023-04-16T06:24:06.386Z,99247.28
2023-04-16T06:26:33.527Z,99248.38
2023-04-16T06:29:01.064Z,99253.66
2023-04-16T06:31:28.225Z,99255.13
2023-04-16T06:33:55.700Z,99254.84
2023-04-16T06:36:22.904Z,99257.63
2023-04-16T06:38:50.259Z,99259.50
2023-04-16T06:41:17.437Z,99255.97
2023-04-16T06:43:44.896Z,99251.69
2023-04-16T06:46:12.129Z,99259.09
2023-04-16T06:48:39.726Z,99250.84
2023-04-16T06:51:07.030Z,99251.22
2023-04-16T06:53:34.879Z,99261.75
2023-04-16T06:56:02.173Z,99261.69
2023-04-16T06:58:29.632Z,99267.13
2023-04-16T07:00:56.884Z,99261.56
2023-04-16T07:03:24.669Z,99257.94
2023-04-16T07:05:51.880Z,99257.69
2023-04-16T07:08:19.353Z,99264.59
2023-04-16T07:10:46.628Z,99268.59
2023-04-16T07:13:14.903Z,99271.81
2023-04-16T07:15:42.050Z,99271.41
2023-04-16T07:18:09.717Z,99273.66
2023-04-16T07:20:36.953Z,99268.94
2023-04-16T07:23:04.508Z,99273.19
2023-04-16T07:25:31.614Z,99278.97
2023-04-16T07:27:59.052Z,99277.88
2023-04-16T07:30:32.606Z,99286.41
2023-04-16T07:33:04.415Z,99279.88
2023-04-16T07:35:32.112Z,99285.63
2023-04-16T07:37:59.506Z,99282.94
2023-04-16T07:40:26.739Z,99285.50
2023-04-16T07:42:55.780Z,99286.44
2023-04-16T07:45:23.855Z,99286.47
2023-04-16T07:47:51.465Z,99282.72
2023-04-16T07:50:19.527Z,99283.06
2023-04-16T07:52:47.697Z,99291.69
2023-04-16T07:55:15.118Z,99297.50
2023-04-16T07:57:42.584Z,99290.16
2023-04-16T08:00:10.868Z,99302.75
2023-04-16T08:02:43.117Z,99293.25
2023-04-16T08:05:11.297Z,99300.00
2023-04-16T08:07:38.731Z,99296.72
2023-04-16T08:10:06.718Z,99303.59
2023-04-16T08:12:34.301Z,99300.81
2023-04-16T08:15:01.677Z,99305.16
2023-04-16T08:17:30.056Z,99299.47
2023-04-16T08:19:57.301Z,99301.09
2023-04-16T08:22:24.835Z,99302.19
2023-04-16T08:24:52.384Z,99296.28
2023-04-16T08:27:20.462Z,99299.50
2023-04-16T08:29:48.428Z,99296.84
2023-04-16T08:32:15.854Z,99301.66
2023-04-16T08:34:43.303Z,99296.78
2023-04-16T08:37:10.723Z,99294.00
2023-04-16T08:39:38.230Z,99298.94
2023-04-16T08:42:18.701Z,99298.34
2023-04-16T08:44:52.936Z,99290.97
2023-04-16T08:47:25.462Z,99301.06
2023-04-16T08:49:58.328Z,99305.06
2023-04-16T08:52:31.141Z,99306.78
2023-04-16T08:55:13.449Z,99296.41
2023-04-16T08:57:59.555Z,99298.09
2023-04-16T09:00:31.609Z,99300.03
2023-04-16T09:02:59.938Z,99304.22
2023-04-16T09:05:29.422Z,99307.38
2023-04-16T09:07:57.050Z,99303.88
2023-04-16T09:10:27.198Z,99305.25
2023-04-16T09:12:57.877Z,99308.19
2023-04-16T09:15:25.989Z,99304.16
2023-04-16T09:17:54.383Z,99301.19
2023-04-16T09:20:21.681Z,99298.44
2023-04-16T09:22:49.275Z,99291.50
2023-04-16T09:25:16.598Z,99292.22
2023-04-16T09:27:44.630Z,99298.47
2023-04-16T09:30:28.320Z,99300.31
2023-04-16T09:33:22.432Z,99286.53
2023-04-16T09:35:52.977Z,99287.78
2023-04-16T09:38:21.219Z,99289.31
2023-04-16T09:40:48.556Z,99294.16
2023-04-16T09:43:18.361Z,99299.22
2023-04-16T09:45:54.575Z,99294.63
2023-04-16T09:48:33.650Z,99295.03
2023-04-16T09:51:01.958Z,99303.53
2023-04-16T09:53:31.789Z,99301.41
2023-04-16T09:56:07.460Z,99305.53
2023-04-16T09:58:38.289Z,99287.47
2023-04-16T10:01:12.194Z,99292.28
2023-04-16T10:03:41.114Z,99286.88
2023-04-16T10:06:21.143Z,99288.59
2023-04-16T10:08:58.574Z,99290.72
2023-04-16T10:11:26.241Z,99286.56
2023-04-16T10:13:53.743Z,99286.75
2023-04-16T10:16:23.327Z,99280.13
2023-04-16T10:18:51.047Z,99284.78
2023-04-16T10:21:19.055Z,99283.66
2023-04-16T10:23:47.254Z,99275.19
2023-04-16T10:26:15.052Z,99272.75
2023-04-16T10:28:42.799Z,99276.34
2023-04-16T10:31:10.457Z,99280.72
2023-04-16T10:33:42.165Z,99283.00
2023-04-16T10:36:13.657Z,99286.06
2023-04-16T10:38:50.974Z,99279.72
2023-04-16T10:41:20.649Z,99281.69
2023-04-16T10:43:50.669Z,99284.28
2023-04-16T10:46:33.404Z,99281.34
2023-04-16T10:49:03.521Z,99284.78
2023-04-16T10:51:36.141Z,99286.94
2023-04-16T10:54:04.999Z,99281.16
2023-04-16T10:56:34.205Z,99282.50
2023-04-16T10:59:05.722Z,99279.94
2023-04-16T11:01:35.283Z,99284.00
2023-04-16T11:04:25.518Z,99284.31
2023-04-16T11:07:13.787Z,99279.34
2023-04-16T11:09:50.268Z,99277.06
2023-04-16T11:12:33.806Z,99279.75
2023-04-16T11:15:13.045Z,99278.78
2023-04-16T11:17:44.300Z,99280.56
2023-04-16T11:20:21.722Z,99284.06
2023-04-16T11:22:50.900Z,99278.59
2023-04-16T11:25:23.282Z,99277.63
2023-04-16T11:27:52.074Z,99280.03
2023-04-16T11:30:30.214Z,99280.03
2023-04-16T11:32:57.525Z,99281.59
2023-04-16T11:35:25.247Z,99282.22
2023-04-16T11:37:57.141Z,99282.13
2023-04-16T11:40:29.243Z,99283.09
2023-04-16T11:43:02.690Z,99280.69
2023-04-16T11:45:30.183Z,99286.22
2023-04-16T11:47:57.840Z,99284.13
2023-04-16T11:50:28.367Z,99278.22
2023-04-16T11:53:02.908Z,99275.94
2023-04-16T11:55:31.138Z,99274.97
2023-04-16T11:58:11.747Z,99270.00
2023-04-16T12:00:39.616Z,99277.41
2023-04-16T12:03:08.115Z,99262.88
2023-04-16T12:05:39.273Z,99263.56
2023-04-16T12:08:11.884Z,99266.97
2023-04-16T12:10:56.304Z,99258.84
2023-04-16T12:13:23.563Z,99252.72
2023-04-16T12:15:53.529Z,99255.75
2023-04-16T12:18:29.224Z,99259.47
2023-04-16T12:20:56.848Z,99259.22
2023-04-16T12:23:27.603Z,99256.50
2023-04-16T12:25:59.621Z,99252.16
2023-04-16T12:28:28.451Z,99243.59
2023-04-16T12:30:56.471Z,99244.47
2023-04-16T12:33:24.037Z,99242.78
2023-04-16T12:35:51.607Z,99241.19
2023-04-16T12:38:19.060Z,99235.28
2023-04-16T12:40:47.095Z,99244.00
2023-04-16T12:43:14.457Z,99240.63
2023-04-16T12:45:42.546Z,99244.00
2023-04-16T12:48:10.210Z,99236.84
2023-04-16T12:50:39.536Z,99241.25
2023-04-16T12:53:07.003Z,99239.31
2023-04-16T12:55:34.752Z,99238.94
2023-04-16T12:58:01.956Z,99241.50
2023-04-16T13:00:29.299Z,99232.28
2023-04-16T13:02:56.698Z,99233.97
2023-04-16T13:05:24.211Z,99225.38
2023-04-16T13:07:51.461Z,99227.13
2023-04-16T13:10:21.412Z,99228.66
2023-04-16T13:12:48.814Z,99230.84
2023-04-16T13:15:16.214Z,99230.41
2023-04-16T13:17:43.607Z,99232.03
2023-04-16T13:20:11.484Z,99230.84
2023-04-16T13:22:39.387Z,99239.50
2023-04-16T13:25:08.012Z,99234.47
2023-04-16T13:27:35.254Z,99236.75
2023-04-16T13:30:02.579Z,99230.47
2023-04-16T13:32:29.809Z,99233.81
2023-04-16T13:34:57.259Z,99228.88
2023-04-16T13:37:24.381Z,99233.91
2023-04-16T13:39:51.744Z,99222.34
2023-04-16T13:42:18.865Z,99226.72
2023-04-16T13:44:48.817Z,99227.53
2023-04-16T13:47:16.786Z,99230.50
2023-04-16T13:49:44.103Z,99231.91
2023-04-16T13:52:11.414Z,99237.38
2023-04-16T13:54:38.841Z,99233.03
2023-04-16T13:57:06.539Z,99228.03
2023-04-16T13:59:33.968Z,99229.41
2023-04-16T14:02:01.275Z,99227.06
2023-04-16T14:04:28.797Z,99227.72
2023-04-16T14:06:56.102Z,99227.28
2023-04-16T14:09:23.908Z,99226.63
2023-04-16T14:11:51.461Z,99225.41
2023-04-16T14:14:19.000Z,99218.00
2023-04-16T14:16:46.284Z,99218.94
2023-04-16T14:19:14.262Z,99226.84
2023-04-16T14:21:41.418Z,99221.31
2023-04-16T14:24:09.314Z,99221.06
2023-04-16T14:26:36.545Z,99222.69
2023-04-16T14:29:03.903Z,99225.25
2023-04-16T14:31:32.345Z,99224.91
2023-04-16T14:33:59.864Z,99218.81
2023-04-16T14:36:27.358Z,99224.28
2023-04-16T14:38:54.930Z,99222.38
2023-04-16T14:41:22.157Z,99219.63
2023-04-16T14:43:49.743Z,99220.91
2023-04-16T14:46:19.998Z,99229.59
2023-04-16T14:48:47.460Z,99217.53
2023-04-16T14:51:14.506Z,99229.28
2023-04-16T14:53:42.114Z,99228.00
2023-04-16T14:56:10.868Z,99229.28
2023-04-16T14:58:39.458Z,99235.53
2023-04-16T15:01:06.789Z,99233.78
2023-04-16T15:03:34.797Z,99234.19
2023-04-16T15:06:02.484Z,99240.06
2023-04-16T15:08:30.047Z,99236.03
2023-04-16T15:10:57.180Z,99234.59
2023-04-16T15:13:24.880Z,99238.72
2023-04-16T15:15:52.229Z,99235.16
2023-04-16T15:18:19.928Z,99231.41
2023-04-16T15:20:46.946Z,99241.41
2023-04-16T15:23:14.659Z,99231.94
2023-04-16T15:25:41.738Z,99236.16
2023-04-16T15:28:09.189Z,99238.03
2023-04-16T15:30:40.284Z,99233.88
2023-04-16T15:33:08.833Z,99238.47
2023-04-16T15:35:38.780Z,99238.13
2023-04-16T15:38:06.154Z,99241.59
2023-04-16T15:40:33.284Z,99244.41
2023-04-16T15:43:02.281Z,99238.28
2023-04-16T15:45:29.540Z,99244.91
2023-04-16T15:47:56.980Z,99243.00
2023-04-16T15:50:26.300Z,99249.66
2023-04-16T15:52:53.871Z,99243.09
2023-04-16T15:55:21.074Z,99245.13
2023-04-16T15:57:48.430Z,99251.66
2023-04-16T16:00:18.846Z,99256.09
2023-04-16T16:02:47.744Z,99248.53
2023-04-16T16:05:16.348Z,99256.09
2023-04-16T16:07:44.059Z,99253.16
2023-04-16T16:10:12.984Z,99254.88
2023-04-16T16:12:42.343Z,99256.03
2023-04-16T16:15:16.623Z,99261.44
2023-04-16T16:17:44.462Z,99265.88
2023-04-16T16:20:12.747Z,99266.47
2023-04-16T16:22:40.647Z,99264.66
2023-04-16T16:25:08.391Z,99270.44
2023-04-16T16:27:36.551Z,99272.47
2023-04-16T16:30:06.638Z,99273.22
2023-04-16T16:32:34.387Z,99270.88
2023-04-16T16:35:01.853Z,99278.88
2023-04-16T16:37:29.587Z,99276.13
2023-04-16T16:39:56.707Z,99290.56
2023-04-16T16:42:24.191Z,99289.09
2023-04-16T16:44:51.459Z,99302.13
2023-04-16T16:47:20.490Z,99308.47
2023-04-16T16:49:48.349Z,99299.91
2023-04-16T16:52:16.097Z,99306.25
2023-04-16T16:54:43.210Z,99306.00
2023-04-16T16:57:12.388Z,99305.25
2023-04-16T16:59:39.624Z,99302.84
2023-04-16T17:02:07.727Z,99308.63
2023-04-16T17:04:35.250Z,99308.09
2023-04-16T17:07:02.790Z,99316.53
2023-04-16T17:09:29.895Z,99307.97
2023-04-16T17:11:57.284Z,99318.88
2023-04-16T17:14:24.737Z,99315.41
2023-04-16T17:16:52.314Z,99322.78
2023-04-16T17:19:20.698Z,99326.31
2023-04-16T17:21:48.121Z,99326.59
2023-04-16T17:24:15.160Z,99333.72
2023-04-16T17:26:42.653Z,99331.59
2023-04-16T17:29:10.032Z,99340.31
2023-04-16T17:31:37.704Z,99343.84
2023-04-16T17:34:06.204Z,99344.69
2023-04-16T17:36:34.486Z,99345.03
2023-04-16T17:39:03.164Z,99345.88
2023-04-16T17:41:31.031Z,99354.56
2023-04-16T17:43:58.092Z,99356.47
2023-04-16T17:46:25.782Z,99360.00
2023-04-16T17:48:53.083Z,99360.56
2023-04-16T17:51:42.521Z,99363.28
2023-04-16T17:54:21.426Z,99362.19
2023-04-16T17:56:48.835Z,99363.84
2023-04-16T17:59:15.955Z,99363.03
2023-04-16T18:01:44.406Z,99367.91
2023-04-16T18:04:12.166Z,99364.94
2023-04-16T18:06:39.846Z,99364.38
2023-04-16T18:09:06.948Z,99374.66
2023-04-16T18:11:34.631Z,99376.28
2023-04-16T18:14:02.570Z,99375.75
2023-04-16T18:16:29.888Z,99381.69
2023-04-16T18:18:57.086Z,99385.97
2023-04-16T18:21:24.614Z,99381.63
2023-04-16T18:23:51.687Z,99395.13
2023-04-16T18:26:22.392Z,99398.63
2023-04-16T18:28:50.352Z,99398.88
2023-04-16T18:31:24.627Z,99395.34
2023-04-16T18:33:56.507Z,99399.91
2023-04-16T18:36:28.574Z,99405.84
2023-04-16T18:39:01.691Z,99409.06
2023-04-16T18:41:31.255Z,99409.03
2023-04-16T18:43:58.579Z,99405.75
2023-04-16T18:46:27.232Z,99413.00
2023-04-16T18:48:54.525Z,99420.28
2023-04-16T18:51:21.896Z,99415.94
2023-04-16T18:53:48.982Z,99416.97
2023-04-16T18:56:16.893Z,99415.56
2023-04-16T18:58:44.035Z,99426.59
2023-04-16T19:01:14.361Z,99422.22
2023-04-16T19:03:42.689Z,99423.25
2023-04-16T19:06:10.277Z,99423.50
2023-04-16T19:08:37.847Z,99421.28
2023-04-16T19:11:07.640Z,99423.09
2023-04-16T19:13:34.754Z,99423.34
2023-04-16T19:16:02.611Z,99418.16
2023-04-16T19:18:29.711Z,99425.09
2023-04-16T19:21:01.084Z,99419.66
2023-04-16T19:23:29.014Z,99426.31
2023-04-16T19:26:07.527Z,99416.81
2023-04-16T19:28:42.475Z,99422.16
2023-04-16T19:31:09.954Z,99420.75
2023-04-16T19:33:37.267Z,99424.47
2023-04-16T19:36:05.168Z,99419.53
2023-04-16T19:38:32.406Z,99423.81
2023-04-16T19:40:59.760Z,99423.16
2023-04-16T19:43:28.395Z,99415.84
2023-04-16T19:45:57.347Z,99419.78
2023-04-16T19:48:24.818Z,99417.28
2023-04-16T19:50:53.910Z,99418.31
2023-04-16T19:53:21.819Z,99423.63
2023-04-16T19:55:49.760Z,99419.22
2023-04-16T19:58:19.142Z,99417.28
2023-04-16T20:00:49.850Z,99419.69
2023-04-16T20:03:17.351Z,99412.59
2023-04-16T20:05:49.912Z,99409.84
2023-04-16T20:08:17.958Z,99412.47
2023-04-16T20:10:48.542Z,99409.97
2023-04-16T20:13:18.553Z,99409.09
2023-04-16T20:15:52.798Z,99403.91
2023-04-16T20:18:21.898Z,99403.81
2023-04-16T20:20:51.503Z,99409.94
2023-04-16T20:23:20.669Z,99414.69
2023-04-16T20:25:49.430Z,99411.34
2023-04-16T20:28:21.024Z,99413.38
2023-04-16T20:30:48.483Z,99411.41
2023-04-16T20:33:15.670Z,99409.81
2023-04-16T20:35:43.264Z,99414.75
2023-04-16T20:38:10.431Z,99416.81
2023-04-16T20:40:40.203Z,99418.84
2023-04-16T20:43:11.374Z,99413.38
2023-04-16T20:45:46.012Z,99423.47
2023-04-16T20:48:13.284Z,99408.31
2023-04-16T20:50:40.733Z,99408.81
2023-04-16T20:53:08.083Z,99401.47
2023-04-16T20:55:35.427Z,99405.38
2023-04-16T20:58:02.563Z,99404.25
2023-04-16T21:00:29.939Z,99407.41
2023-04-16T21:02:57.302Z,99411.06
2023-04-16T21:05:26.480Z,99407.72
2023-04-16T21:07:55.764Z,99407.63
2023-04-16T21:10:22.946Z,99406.47
2023-04-16T21:12:50.343Z,99410.13
2023-04-16T21:15:17.535Z,99412.94
2023-04-16T21:17:45.090Z,99409.34
2023-04-16T21:20:13.643Z,99411.13
2023-04-16T21:22:41.278Z,99419.88
2023-04-16T21:25:09.197Z,99416.28
2023-04-16T21:27:36.590Z,99413.94
2023-04-16T21:30:04.117Z,99423.72
2023-04-16T21:32:31.593Z,99419.91
2023-04-16T21:34:58.718Z,99417.13
2023-04-16T21:37:26.132Z,99414.34
2023-04-16T21:39:53.155Z,99410.72
2023-04-16T21:42:20.548Z,99416.22
2023-04-16T21:44:47.702Z,99411.81
2023-04-16T21:47:15.091Z,99414.38
2023-04-16T21:49:45.403Z,99419.06
2023-04-16T21:52:18.209Z,99423.22
2023-04-16T21:54:46.091Z,99429.75
2023-04-16T21:57:13.783Z,99428.81
2023-04-16T21:59:41.362Z,99428.94
2023-04-16T22:02:08.786Z,99419.97
2023-04-16T22:04:39.961Z,99422.53
2023-04-16T22:07:10.061Z,99422.44
2023-04-16T22:09:41.466Z,99425.19
2023-04-16T22:12:11.554Z,99417.84
2023-04-16T22:14:44.091Z,99422.06
2023-04-16T22:17:17.141Z,99416.78
2023-04-16T22:19:44.562Z,99419.13
2023-04-16T22:22:12.171Z,99419.44
2023-04-16T22:24:39.310Z,99426.91
2023-04-16T22:27:06.796Z,99416.63
2023-04-16T22:29:33.864Z,99429.88
2023-04-16T22:32:01.981Z,99423.78
2023-04-16T22:34:29.179Z,99432.06
2023-04-16T22:36:56.852Z,99430.53
2023-04-16T22:39:24.082Z,99423.97
2023-04-16T22:41:51.726Z,99420.38
2023-04-16T22:44:18.761Z,99424.63
2023-04-16T22:46:47.139Z,99430.88
2023-04-16T22:49:14.407Z,99427.59
2023-04-16T22:51:41.744Z,99426.44
2023-04-16T22:54:13.632Z,99432.00
2023-04-16T22:56:41.282Z,99431.06
2023-04-16T22:59:08.493Z,99431.13
2023-04-16T23:01:36.557Z,99427.03
2023-04-16T23:04:03.894Z,99431.78
2023-04-16T23:06:34.528Z,99439.66
2023-04-16T23:09:01.654Z,99432.56
2023-04-16T23:11:29.000Z,99430.56
2023-04-16T23:13:56.155Z,99425.06
2023-04-16T23:16:23.538Z,99428.19
2023-04-16T23:18:50.627Z,99431.13
2023-04-16T23:21:17.917Z,99426.03
2023-04-16T23:23:45.103Z,99431.22
2023-04-16T23:26:12.523Z,99432.09
2023-04-16T23:28:39.599Z,99423.47
2023-04-16T23:31:07.647Z,99428.00
2023-04-16T23:33:34.995Z,99430.53
2023-04-16T23:36:02.377Z,99429.78
2023-04-16T23:38:29.508Z,99425.69
2023-04-16T23:40:56.848Z,99433.09
2023-04-16T23:43:23.860Z,99423.69
2023-04-16T23:45:51.277Z,99427.03
2023-04-16T23:48:18.398Z,99423.38
2023-04-16T23:50:45.783Z,99419.28
2023-04-16T23:53:13.317Z,99431.22
2023-04-16T23:55:40.789Z,99429.44
2023-04-16T23:58:07.876Z,99424.72
